Time;durP1;ratioP1;P1;durP2;ratioP2;P2;SDS_P1;SDS_P2;PMS_P1;PMS_P2;Temp;Humidity;BMP_temperature;BMP_pressure;BME280_temperature;BME280_humidity;BME280_pressure;Samples;Min_cycle;Max_cycle;Signal;HPM_P1;HPM_P2
2023/06/09 00:00:30;;;;;;;14.93;10.27;;;12.10;99.90;;;;;;5049772;28;20413;-70
2023/06/09 00:02:56;;;;;;;12.02;9.70;;;12.00;99.90;;;;;;5053657;28;20112;-70
2023/06/09 00:05:23;;;;;;;13.93;10.95;;;12.00;99.90;;;;;;5053172;28;20389;-70
2023/06/09 00:07:52;;;;;;;12.40;9.38;;;12.00;99.90;;;;;;5053756;28;20082;-70
2023/06/09 00:10:18;;;;;;;17.05;10.48;;;12.00;99.90;;;;;;5053056;28;20036;-70
2023/06/09 00:12:47;;;;;;;15.35;10.68;;;12.00;99.90;;;;;;5053763;28;20025;-70
2023/06/09 00:15:15;;;;;;;20.50;11.27;;;12.00;99.90;;;;;;5051339;28;20048;-70
2023/06/09 00:17:41;;;;;;;17.15;11.45;;;12.10;99.90;;;;;;5053482;28;20040;-70
2023/06/09 00:20:08;;;;;;;17.48;11.32;;;12.10;99.90;;;;;;5052854;28;20072;-70
2023/06/09 00:22:42;;;;;;;13.30;10.70;;;12.10;99.90;;;;;;5053265;28;20040;-70
2023/06/09 00:25:12;;;;;;;13.90;10.13;;;12.10;99.90;;;;;;5052241;28;20388;-70
2023/06/09 00:27:43;;;;;;;13.57;10.85;;;12.10;99.90;;;;;;5053130;28;20056;-70
2023/06/09 00:30:10;;;;;;;16.50;11.18;;;12.10;99.90;;;;;;5051050;28;20056;-71
2023/06/09 00:32:36;;;;;;;15.52;11.10;;;12.10;99.90;;;;;;5052580;28;20021;-70
2023/06/09 00:35:02;;;;;;;16.20;10.43;;;12.10;99.90;;;;;;5051211;28;20119;-74
2023/06/09 00:37:28;;;;;;;16.27;11.35;;;12.10;99.90;;;;;;5052839;28;20449;-70
2023/06/09 00:39:55;;;;;;;19.95;10.35;;;12.00;99.90;;;;;;5052492;28;20029;-70
2023/06/09 00:42:21;;;;;;;15.85;11.30;;;12.00;99.90;;;;;;5050942;28;20496;-70
2023/06/09 00:44:46;;;;;;;14.13;10.27;;;12.00;99.90;;;;;;5052815;28;20036;-70
2023/06/09 00:47:12;;;;;;;13.75;10.45;;;11.90;99.90;;;;;;5051917;28;20377;-70
2023/06/09 00:49:39;;;;;;;13.80;9.93;;;12.00;99.90;;;;;;5052383;28;20081;-71
2023/06/09 00:52:06;;;;;;;12.93;9.93;;;12.00;99.90;;;;;;5052095;28;20111;-70
2023/06/09 00:54:32;;;;;;;16.98;11.20;;;12.00;99.90;;;;;;5052307;28;20105;-70
2023/06/09 00:56:58;;;;;;;16.50;10.68;;;12.00;99.90;;;;;;5052145;28;20050;-70
2023/06/09 00:59:26;;;;;;;16.70;10.23;;;11.90;99.90;;;;;;5050626;28;20029;-70
2023/06/09 01:01:51;;;;;;;12.85;9.18;;;11.90;99.90;;;;;;5052313;28;20057;-70
2023/06/09 01:04:18;;;;;;;19.55;11.27;;;11.90;99.90;;;;;;5051539;28;20451;-70
2023/06/09 01:07:17;;;;;;;16.35;10.23;;;11.90;99.90;;;;;;5052199;28;20411;-70
2023/06/09 01:09:51;;;;;;;13.52;10.30;;;11.90;99.90;;;;;;5052237;28;20113;-70
2023/06/09 01:12:48;;;;;;;13.85;10.30;;;11.90;99.90;;;;;;5051555;28;20332;-70
2023/06/09 01:15:29;;;;;;;16.38;10.85;;;11.80;99.90;;;;;;5051620;28;20028;-70
2023/06/09 01:18:03;;;;;;;19.67;12.45;;;11.80;99.90;;;;;;5051973;28;20143;-70
2023/06/09 01:20:38;;;;;;;17.88;12.88;;;11.90;99.90;;;;;;5052376;28;20025;-70
2023/06/09 01:23:15;;;;;;;20.83;12.60;;;11.90;99.90;;;;;;5052108;28;20040;-73
2023/06/09 01:25:43;;;;;;;24.65;14.75;;;12.00;99.90;;;;;;5052294;28;20049;-71
2023/06/09 01:28:16;;;;;;;19.92;12.85;;;12.00;99.90;;;;;;5051604;28;20041;-71
2023/06/09 01:30:43;;;;;;;;;;;12.00;99.90;;;;;;5051493;28;20489;-70
2023/06/09 01:33:11;;;;;;;23.63;14.88;;;12.10;99.90;;;;;;5051654;28;19905;-71
2023/06/09 01:35:38;;;;;;;23.27;16.00;;;12.10;99.90;;;;;;5051709;28;20029;-70
2023/06/09 01:38:06;;;;;;;29.52;17.02;;;12.20;99.90;;;;;;5052273;28;20061;-73
2023/06/09 01:40:32;;;;;;;31.27;16.40;;;12.20;99.90;;;;;;5050829;28;20409;-71
2023/06/09 01:43:00;;;;;;;20.63;15.90;;;12.30;99.90;;;;;;5052377;28;20025;-70
2023/06/09 01:45:26;;;;;;;29.05;15.68;;;12.20;99.90;;;;;;5051491;28;20072;-70
2023/06/09 01:47:53;;;;;;;27.42;15.60;;;12.20;99.90;;;;;;5052125;28;20048;-70
2023/06/09 01:50:41;;;;;;;29.35;18.13;;;12.20;99.90;;;;;;5051298;28;20505;-70
2023/06/09 01:53:14;;;;;;;28.33;17.60;;;12.20;99.90;;;;;;5051397;28;20021;-73
2023/06/09 01:55:50;;;;;;;24.50;16.77;;;12.30;99.90;;;;;;5051700;28;20075;-70
2023/06/09 01:58:43;;;;;;;28.98;17.48;;;12.30;99.90;;;;;;5051260;28;20025;-70
2023/06/09 02:01:12;;;;;;;28.85;16.88;;;12.40;99.90;;;;;;5050987;28;20029;-71
2023/06/09 02:03:40;;;;;;;28.73;17.98;;;12.40;99.90;;;;;;5051262;28;20112;-70
2023/06/09 02:06:06;;;;;;;26.45;17.50;;;12.40;99.90;;;;;;5051056;28;20037;-72
2023/06/09 02:08:32;;;;;;;29.00;18.70;;;12.40;99.90;;;;;;5051064;28;20036;-70
2023/06/09 02:10:58;;;;;;;27.52;17.25;;;12.40;99.90;;;;;;5051243;28;20032;-70
2023/06/09 02:13:23;;;;;;;33.08;19.63;;;12.50;99.90;;;;;;5050694;28;20422;-70
2023/06/09 02:15:49;;;;;;;24.55;18.02;;;12.50;99.90;;;;;;5051208;28;20071;-71
2023/06/09 02:18:20;;;;;;;29.17;18.02;;;12.50;99.90;;;;;;5050750;28;20024;-70
2023/06/09 02:20:47;;;;;;;34.47;19.77;;;12.50;99.90;;;;;;5051372;28;20054;-70
2023/06/09 02:23:15;;;;;;;33.35;18.38;;;12.50;99.90;;;;;;5050110;28;20029;-70
2023/06/09 02:25:41;;;;;;;31.20;18.45;;;12.50;99.90;;;;;;5050457;28;20055;-70
2023/06/09 02:28:07;;;;;;;28.45;17.20;;;12.60;99.90;;;;;;5050711;28;20045;-70
2023/06/09 02:30:33;;;;;;;28.50;17.08;;;12.60;99.90;;;;;;5048848;28;20029;-70
2023/06/09 02:33:00;;;;;;;26.38;16.00;;;12.60;99.90;;;;;;5050764;28;20044;-70
2023/06/09 02:35:26;;;;;;;32.80;15.32;;;12.70;99.90;;;;;;5049903;28;20131;-70
2023/06/09 02:37:52;;;;;;;23.83;13.10;;;12.70;99.90;;;;;;5050504;28;20028;-70
2023/06/09 02:40:21;;;;;;;20.30;11.75;;;12.70;99.90;;;;;;5049954;28;20086;-70
2023/06/09 02:42:47;;;;;;;23.15;12.50;;;12.70;99.90;;;;;;5050510;28;20025;-70
2023/06/09 02:45:13;;;;;;;18.77;11.23;;;12.70;99.90;;;;;;5050064;28;20033;-70
2023/06/09 02:47:39;;;;;;;23.20;11.20;;;12.70;99.90;;;;;;5050124;28;20085;-70
2023/06/09 02:50:05;;;;;;;20.33;10.82;;;12.70;99.90;;;;;;5050114;28;20025;-70
2023/06/09 02:52:32;;;;;;;17.95;11.38;;;12.80;99.90;;;;;;5049782;28;20033;-70
2023/06/09 02:54:58;;;;;;;22.40;10.80;;;12.70;99.90;;;;;;5050341;28;20029;-70
2023/06/09 02:57:28;;;;;;;20.02;9.95;;;12.70;99.90;;;;;;5049881;28;20021;-70
2023/06/09 02:59:54;;;;;;;22.38;9.75;;;12.70;99.90;;;;;;5050413;28;20036;-70
2023/06/09 03:02:19;;;;;;;23.75;9.95;;;12.70;99.90;;;;;;5049491;28;20029;-70
2023/06/09 03:04:45;;;;;;;24.95;10.20;;;12.70;99.90;;;;;;5048377;28;20027;-70
2023/06/09 03:07:14;;;;;;;22.65;10.00;;;12.70;99.90;;;;;;5049480;28;20063;-73
2023/06/09 03:09:40;;;;;;;21.67;10.05;;;12.60;99.90;;;;;;5050022;28;20024;-70
2023/06/09 03:12:06;;;;;;;25.42;9.93;;;12.60;99.90;;;;;;5050172;28;20040;-70
2023/06/09 03:14:34;;;;;;;21.10;10.10;;;12.60;99.90;;;;;;5049599;28;20551;-70
2023/06/09 03:17:00;;;;;;;21.83;9.65;;;12.60;99.90;;;;;;5049899;28;20035;-70
2023/06/09 03:19:27;;;;;;;18.98;9.50;;;12.60;99.90;;;;;;5049609;28;20083;-70
2023/06/09 03:21:53;;;;;;;28.55;9.55;;;12.60;99.90;;;;;;5050123;28;20147;-70
2023/06/09 03:24:19;;;;;;;27.65;10.00;;;12.60;99.90;;;;;;5049638;28;20021;-70
2023/06/09 03:26:49;;;;;;;22.02;9.82;;;12.50;99.90;;;;;;5049998;28;20344;-70
2023/06/09 03:29:15;;;;;;;30.13;10.13;;;12.50;99.90;;;;;;5049330;28;20036;-70
2023/06/09 03:31:41;;;;;;;21.23;9.52;;;12.50;99.90;;;;;;5049931;28;20052;-70
2023/06/09 03:34:07;;;;;;;25.83;10.20;;;12.50;99.90;;;;;;5049673;28;20021;-70
2023/06/09 03:36:33;;;;;;;27.85;10.13;;;12.40;99.90;;;;;;5051308;28;20596;-69
2023/06/09 03:38:59;;;;;;;25.75;9.55;;;12.50;99.90;;;;;;5053655;28;20033;-70
2023/06/09 03:41:25;;;;;;;25.75;9.55;;;12.40;99.90;;;;;;5053406;28;20067;-70
2023/06/09 03:43:51;;;;;;;28.35;8.50;;;12.40;99.90;;;;;;5053869;28;20411;-70
2023/06/09 03:46:17;;;;;;;24.55;8.40;;;12.40;99.90;;;;;;5053171;28;20387;-70
2023/06/09 03:48:43;;;;;;;30.77;8.75;;;12.40;99.90;;;;;;5053780;28;20037;-70
2023/06/09 03:51:08;;;;;;;20.85;8.45;;;12.30;99.90;;;;;;5053874;28;20072;-70
2023/06/09 03:53:34;;;;;;;28.75;9.05;;;12.30;99.90;;;;;;5053188;28;20603;-70
2023/06/09 03:56:00;;;;;;;25.52;8.73;;;12.30;99.90;;;;;;5054054;28;20033;-70
2023/06/09 03:58:26;;;;;;;24.10;8.55;;;12.30;99.90;;;;;;5053410;28;20028;-70
2023/06/09 04:00:52;;;;;;;24.45;7.97;;;12.30;99.90;;;;;;5052186;28;20033;-69
2023/06/09 04:03:20;;;;;;;22.27;7.80;;;12.20;99.90;;;;;;5053256;28;20040;-71
2023/06/09 04:05:47;;;;;;;21.92;8.25;;;12.30;99.90;;;;;;5051847;28;20361;-70
2023/06/09 04:08:13;;;;;;;18.50;8.35;;;12.30;99.90;;;;;;5053572;28;20442;-70
2023/06/09 04:10:40;;;;;;;22.75;8.82;;;12.30;99.90;;;;;;5053158;28;20025;-70
2023/06/09 04:13:06;;;;;;;25.15;8.05;;;12.30;99.90;;;;;;5053458;28;20033;-71
2023/06/09 04:15:32;;;;;;;18.80;8.60;;;12.20;99.90;;;;;;5052960;28;20070;-70
2023/06/09 04:17:58;;;;;;;26.55;8.50;;;12.20;99.90;;;;;;5053472;28;20029;-70
2023/06/09 04:20:24;;;;;;;20.45;7.82;;;12.20;99.90;;;;;;5053608;28;20036;-70
2023/06/09 04:22:52;;;;;;;29.15;8.25;;;12.20;99.90;;;;;;5053813;28;20029;-70
2023/06/09 04:25:36;;;;;;;25.90;8.38;;;12.20;99.90;;;;;;5052833;28;20028;-73
2023/06/09 04:28:03;;;;;;;22.15;7.85;;;12.30;99.90;;;;;;5053717;28;20053;-70
2023/06/09 04:30:30;;;;;;;22.92;8.88;;;12.30;99.90;;;;;;5053061;28;20169;-70
2023/06/09 04:33:01;;;;;;;20.95;7.25;;;12.30;99.90;;;;;;5053237;28;20063;-70
2023/06/09 04:35:27;;;;;;;22.30;7.70;;;12.30;99.90;;;;;;5052730;28;20021;-70
2023/06/09 04:37:53;;;;;;;18.70;6.90;;;12.30;99.90;;;;;;5034741;28;20179;-70
2023/06/09 04:40:23;;;;;;;17.60;7.13;;;12.30;99.90;;;;;;5051335;28;20059;-71
2023/06/09 04:42:55;;;;;;;17.50;7.50;;;12.20;99.90;;;;;;5053336;28;20040;-70
2023/06/09 04:45:27;;;;;;;18.08;7.70;;;12.30;99.90;;;;;;5052344;28;20430;-70
2023/06/09 04:47:59;;;;;;;17.30;7.30;;;12.30;99.90;;;;;;5052470;28;20032;-70
2023/06/09 04:50:30;;;;;;;19.47;7.47;;;12.40;99.90;;;;;;5052402;28;20056;-70
2023/06/09 04:53:03;;;;;;;17.48;7.05;;;12.40;99.90;;;;;;5052967;28;20036;-70
2023/06/09 04:55:30;;;;;;;18.88;6.60;;;12.40;99.90;;;;;;5052239;28;20041;-71
2023/06/09 04:57:56;;;;;;;19.23;6.97;;;12.60;99.90;;;;;;5052638;28;20033;-70
2023/06/09 05:00:29;;;;;;;17.05;6.88;;;12.60;99.90;;;;;;5051865;28;20032;-71
2023/06/09 05:02:57;;;;;;;18.55;7.28;;;12.60;99.90;;;;;;5052954;28;20025;-70
2023/06/09 05:05:23;;;;;;;13.65;6.30;;;12.70;99.90;;;;;;5051796;28;20041;-71
2023/06/09 05:07:50;;;;;;;20.15;7.20;;;12.70;99.90;;;;;;5052342;28;20095;-70
2023/06/09 05:10:16;;;;;;;19.80;7.10;;;12.80;99.90;;;;;;5052513;28;20029;-70
2023/06/09 05:12:42;;;;;;;22.17;7.25;;;12.90;99.90;;;;;;5051830;28;20415;-70
2023/06/09 05:15:08;;;;;;;19.83;6.72;;;12.90;99.90;;;;;;5052591;28;20029;-70
2023/06/09 05:17:36;;;;;;;20.35;7.47;;;13.00;99.90;;;;;;5051850;28;20095;-70
2023/06/09 05:20:05;;;;;;;17.75;7.05;;;13.00;99.90;;;;;;5052433;28;20028;-70
2023/06/09 05:22:32;;;;;;;20.25;6.90;;;13.10;99.90;;;;;;5051856;28;20078;-70
2023/06/09 05:24:58;;;;;;;18.23;6.45;;;13.10;99.90;;;;;;5052227;28;20085;-70
2023/06/09 05:27:23;;;;;;;17.08;6.53;;;13.20;99.90;;;;;;5051810;28;20112;-71
2023/06/09 05:29:49;;;;;;;15.30;6.45;;;13.30;99.90;;;;;;5051853;28;20596;-70
2023/06/09 05:32:15;;;;;;;16.13;6.13;;;13.40;99.90;;;;;;5052172;28;20024;-70
2023/06/09 05:34:42;;;;;;;16.75;6.35;;;13.50;99.90;;;;;;5051168;28;20028;-70
2023/06/09 05:37:07;;;;;;;19.25;6.40;;;13.50;99.90;;;;;;5051499;28;20151;-70
2023/06/09 05:39:33;;;;;;;18.70;6.40;;;13.60;99.90;;;;;;5051210;28;20109;-70
2023/06/09 05:42:00;;;;;;;20.00;6.30;;;13.70;99.90;;;;;;5051855;28;20021;-70
2023/06/09 05:44:28;;;;;;;23.63;6.50;;;13.80;99.90;;;;;;5051109;28;20029;-70
2023/06/09 05:46:54;;;;;;;17.35;6.20;;;13.80;99.90;;;;;;5051716;28;20064;-69
2023/06/09 05:49:20;;;;;;;21.55;5.63;;;13.80;99.90;;;;;;5051057;28;20033;-73
2023/06/09 05:51:46;;;;;;;20.77;5.72;;;13.80;99.90;;;;;;5049875;28;20083;-70
2023/06/09 05:54:11;;;;;;;20.80;6.65;;;13.80;99.90;;;;;;5051438;28;20103;-70
2023/06/09 05:56:38;;;;;;;20.55;6.75;;;13.80;99.90;;;;;;5051065;28;20111;-70
2023/06/09 05:59:04;;;;;;;21.27;6.30;;;13.80;99.90;;;;;;5050506;28;20029;-70
2023/06/09 06:01:34;;;;;;;15.98;6.05;;;13.90;99.90;;;;;;5051013;28;20032;-70
2023/06/09 06:04:00;;;;;;;14.07;5.93;;;13.90;99.90;;;;;;5051624;28;20430;-70
2023/06/09 06:06:25;;;;;;;19.02;6.07;;;14.10;99.90;;;;;;5050689;28;20025;-71
2023/06/09 06:08:51;;;;;;;25.63;6.32;;;14.10;99.90;;;;;;5051750;28;20064;-71
2023/06/09 06:11:17;;;;;;;20.30;5.82;;;14.00;99.90;;;;;;5050163;28;20052;-71
2023/06/09 06:13:43;;;;;;;22.67;6.70;;;13.90;99.90;;;;;;5050642;28;20024;-71
2023/06/09 06:16:08;;;;;;;20.15;5.93;;;14.00;99.90;;;;;;5051207;28;20338;-70
2023/06/09 06:18:34;;;;;;;19.85;5.95;;;14.10;99.90;;;;;;5050624;28;20024;-71
2023/06/09 06:21:00;;;;;;;19.83;6.57;;;14.20;99.90;;;;;;5051506;28;20032;-71
2023/06/09 06:23:26;;;;;;;16.85;5.53;;;14.30;99.90;;;;;;5050515;28;20029;-71
2023/06/09 06:25:52;;;;;;;15.07;6.05;;;14.50;99.90;;;;;;5050653;28;20109;-71
2023/06/09 06:28:20;;;;;;;22.02;5.88;;;14.60;99.90;;;;;;5051201;28;20052;-71
2023/06/09 06:30:45;;;;;;;16.33;5.95;;;14.70;99.90;;;;;;5048803;28;20033;-70
2023/06/09 06:33:11;;;;;;;19.25;5.63;;;14.60;99.90;;;;;;5051029;28;20036;-70
2023/06/09 06:35:37;;;;;;;21.08;7.00;;;14.50;99.90;;;;;;5050390;28;20075;-71
2023/06/09 06:38:03;;;;;;;17.48;6.47;;;14.40;99.90;;;;;;5050644;28;20067;-71
2023/06/09 06:40:29;;;;;;;19.90;6.75;;;14.50;99.90;;;;;;5050162;28;20052;-71
2023/06/09 06:42:55;;;;;;;23.92;6.68;;;14.50;99.90;;;;;;5050719;28;20029;-71
2023/06/09 06:45:21;;;;;;;19.25;5.95;;;14.80;99.90;;;;;;5050564;28;20550;-71
2023/06/09 06:47:49;;;;;;;19.83;6.90;;;14.90;99.90;;;;;;5050158;28;20100;-71
2023/06/09 06:50:15;;;;;;;23.08;5.75;;;14.90;99.90;;;;;;5050388;28;20114;-70
2023/06/09 06:52:41;;;;;;;19.58;6.00;;;14.80;99.90;;;;;;5050382;28;20025;-71
2023/06/09 06:55:08;;;;;;;18.63;5.53;;;14.60;99.90;;;;;;5050450;28;20029;-71
2023/06/09 06:57:38;;;;;;;20.10;5.78;;;14.60;99.90;;;;;;5049494;28;20559;-71
2023/06/09 07:00:14;;;;;;;18.42;6.60;;;14.60;99.90;;;;;;5049984;28;20021;-70
2023/06/09 07:02:46;;;;;;;19.15;5.40;;;14.60;99.90;;;;;;5049848;28;20024;-71
2023/06/09 07:05:12;;;;;;;20.33;5.68;;;14.70;99.90;;;;;;5048759;28;20029;-71
2023/06/09 07:07:38;;;;;;;17.58;6.25;;;14.80;99.90;;;;;;5049462;28;20032;-71
2023/06/09 07:10:05;;;;;;;17.00;6.00;;;15.00;99.90;;;;;;5049592;28;20021;-70
2023/06/09 07:12:32;;;;;;;20.27;6.47;;;15.10;99.90;;;;;;5049409;28;20029;-71
2023/06/09 07:14:58;;;;;;;18.55;6.50;;;15.20;99.90;;;;;;5048697;28;20029;-70
2023/06/09 07:17:24;;;;;;;14.30;5.03;;;15.40;99.90;;;;;;5050295;28;20032;-70
2023/06/09 07:19:49;;;;;;;16.75;5.97;;;15.40;99.90;;;;;;5049992;28;20045;-71
2023/06/09 07:22:15;;;;;;;17.42;6.50;;;15.30;99.90;;;;;;5050443;28;20052;-70
2023/06/09 07:24:41;;;;;;;12.15;5.75;;;15.30;99.90;;;;;;5049919;28;20024;-70
2023/06/09 07:27:08;;;;;;;22.85;5.93;;;15.50;99.90;;;;;;5049876;28;20056;-70
2023/06/09 07:29:37;;;;;;;21.55;6.07;;;15.60;99.90;;;;;;5048372;28;20126;-71
2023/06/09 07:32:03;;;;;;;18.95;5.30;;;15.70;99.90;;;;;;5049858;28;20025;-70
2023/06/09 07:34:31;;;;;;;15.02;5.70;;;15.80;99.90;;;;;;5049226;28;20021;-73
2023/06/09 07:36:59;;;;;;;21.70;6.40;;;15.70;99.90;;;;;;5050053;28;20063;-69
2023/06/09 07:39:25;;;;;;;14.80;5.50;;;15.80;99.90;;;;;;5049851;28;20095;-70
2023/06/09 07:41:51;;;;;;;19.17;5.82;;;15.80;99.90;;;;;;5047975;28;20025;-70
2023/06/09 07:44:16;;;;;;;20.23;5.95;;;15.80;99.90;;;;;;5050011;28;20032;-70
2023/06/09 07:46:42;;;;;;;15.13;5.65;;;15.70;99.90;;;;;;5049284;28;20115;-70
2023/06/09 07:49:08;;;;;;;17.85;6.03;;;15.70;99.90;;;;;;5049644;28;20129;-70
2023/06/09 07:51:37;;;;;;;16.23;6.32;;;15.80;99.90;;;;;;5049180;28;20098;-71
2023/06/09 07:54:05;;;;;;;19.13;6.40;;;16.00;99.90;;;;;;5049951;28;20370;-70
2023/06/09 07:56:32;;;;;;;17.52;6.30;;;16.20;99.90;;;;;;5049374;28;20032;-71
2023/06/09 07:58:58;;;;;;;19.80;6.10;;;16.30;99.90;;;;;;5049529;28;20025;-70
2023/06/09 08:01:25;;;;;;;18.05;6.40;;;16.20;99.90;;;;;;5049867;28;20021;-70
2023/06/09 08:03:50;;;;;;;17.40;6.35;;;16.20;99.90;;;;;;5049218;28;20454;-71
2023/06/09 08:06:16;;;;;;;17.70;5.57;;;16.20;99.90;;;;;;5049645;28;20052;-70
2023/06/09 08:08:43;;;;;;;17.50;6.07;;;16.30;99.90;;;;;;5049176;28;20031;-70
2023/06/09 08:11:09;;;;;;;17.15;6.90;;;16.50;99.90;;;;;;5049498;28;20051;-70
2023/06/09 08:13:35;;;;;;;16.83;5.88;;;16.60;99.90;;;;;;5048930;28;20421;-71
2023/06/09 08:16:01;;;;;;;19.80;6.07;;;16.70;99.90;;;;;;5049916;28;20180;-70
2023/06/09 08:18:26;;;;;;;21.42;6.70;;;16.50;99.90;;;;;;5048158;28;20025;-71
2023/06/09 08:20:52;;;;;;;22.60;6.13;;;16.30;99.90;;;;;;5049549;28;20428;-70
2023/06/09 08:23:20;;;;;;;23.23;6.35;;;16.30;99.90;;;;;;5052242;28;20029;-70
2023/06/09 08:25:47;;;;;;;14.20;6.05;;;16.30;99.90;;;;;;5052216;28;20029;-70
2023/06/09 08:28:13;;;;;;;21.13;6.47;;;16.60;99.90;;;;;;5053699;28;20473;-70
2023/06/09 08:30:39;;;;;;;22.02;6.28;;;16.70;99.90;;;;;;5052559;28;20450;-70
2023/06/09 08:33:04;;;;;;;17.05;5.95;;;16.80;99.90;;;;;;5053057;28;20029;-70
2023/06/09 08:35:32;;;;;;;22.35;6.32;;;16.80;99.90;;;;;;5052976;28;20370;-71
2023/06/09 08:37:58;;;;;;;21.42;6.28;;;16.90;99.90;;;;;;5052687;28;20151;-70
2023/06/09 08:40:24;;;;;;;18.00;6.63;;;16.90;99.90;;;;;;5052270;28;20017;-70
2023/06/09 08:42:56;;;;;;;17.10;5.63;;;17.00;99.90;;;;;;5052097;28;20040;-70
2023/06/09 08:45:22;;;;;;;17.38;6.43;;;17.00;99.90;;;;;;5052606;28;20032;-70
2023/06/09 08:47:52;;;;;;;20.58;5.95;;;17.10;99.90;;;;;;5051925;28;20025;-71
2023/06/09 08:50:21;;;;;;;17.80;6.32;;;17.10;99.90;;;;;;5052547;28;20415;-71
2023/06/09 08:52:48;;;;;;;21.00;6.00;;;17.10;99.90;;;;;;5052106;28;20037;-70
2023/06/09 08:55:14;;;;;;;19.42;6.03;;;17.10;99.90;;;;;;5052509;28;20064;-70
2023/06/09 08:57:40;;;;;;;19.77;5.93;;;17.00;99.90;;;;;;5051730;28;20198;-70
2023/06/09 09:00:09;;;;;;;18.67;6.32;;;16.90;99.90;;;;;;5049357;28;20029;-71
2023/06/09 09:02:35;;;;;;;16.27;6.35;;;16.70;99.90;;;;;;5049814;28;20104;-72
2023/06/09 09:05:01;;;;;;;20.15;6.20;;;16.90;99.90;;;;;;5052480;28;20052;-71
2023/06/09 09:07:28;;;;;;;14.43;5.93;;;16.90;99.90;;;;;;5052183;28;20033;-71
2023/06/09 09:09:54;;;;;;;18.58;6.00;;;16.80;99.90;;;;;;5051091;28;20025;-72
2023/06/09 09:12:20;;;;;;;18.48;6.72;;;16.80;99.90;;;;;;5050691;28;20036;-71
2023/06/09 09:14:47;;;;;;;12.20;5.85;;;17.10;99.90;;;;;;5051092;28;20108;-71
2023/06/09 09:17:14;;;;;;;17.70;5.88;;;17.10;99.90;;;;;;5051611;28;20346;-72
2023/06/09 09:19:45;;;;;;;15.80;6.15;;;17.00;99.90;;;;;;5052087;28;20420;-72
2023/06/09 09:22:11;;;;;;;14.38;6.10;;;17.10;99.90;;;;;;5052136;28;20108;-71
2023/06/09 09:24:41;;;;;;;15.27;6.82;;;17.40;99.90;;;;;;5051338;28;20116;-73
2023/06/09 09:27:21;;;;;;;15.27;6.00;;;17.40;99.90;;;;;;5051523;28;20057;-72
2023/06/09 09:29:47;;;;;;;19.02;6.28;;;17.50;99.90;;;;;;5051320;28;20151;-72
2023/06/09 09:32:13;;;;;;;17.95;6.82;;;17.50;99.90;;;;;;5051443;28;20465;-72
2023/06/09 09:34:45;;;;;;;21.08;7.05;;;17.50;99.90;;;;;;5050152;28;20112;-73
2023/06/09 09:37:13;;;;;;;17.27;6.35;;;17.60;99.90;;;;;;5051680;28;20037;-72
2023/06/09 09:39:53;;;;;;;15.90;6.75;;;17.50;99.90;;;;;;5050819;28;20536;-72
2023/06/09 09:42:20;;;;;;;18.52;6.45;;;17.50;99.90;;;;;;5051685;28;20170;-72
2023/06/09 09:44:50;;;;;;;15.52;6.15;;;17.60;99.90;;;;;;5051075;28;20048;-72
2023/06/09 09:47:18;;;;;;;17.20;6.45;;;17.50;99.90;;;;;;5051343;28;20060;-72
2023/06/09 09:49:55;;;;;;;34.88;9.65;;;17.50;99.90;;;;;;5051099;28;20134;-71
2023/06/09 09:52:34;;;;;;;17.15;7.28;;;17.30;99.90;;;;;;5051095;28;20055;-71
2023/06/09 09:55:03;;;;;;;19.77;6.50;;;17.30;99.90;;;;;;5049749;28;20137;-71
2023/06/09 09:57:31;;;;;;;25.00;6.82;;;17.40;99.90;;;;;;5051197;28;20032;-71
2023/06/09 10:00:00;;;;;;;14.45;6.25;;;17.30;99.90;;;;;;5050902;28;20331;-72
2023/06/09 10:02:30;;;;;;;19.55;6.45;;;17.40;99.90;;;;;;5051538;28;20017;-72
2023/06/09 10:04:56;;;;;;;17.45;6.25;;;17.60;99.90;;;;;;5050743;28;20025;-72
2023/06/09 10:07:26;;;;;;;18.10;6.85;;;17.70;99.90;;;;;;5049415;28;20056;-73
2023/06/09 10:09:53;;;;;;;20.13;6.78;;;17.70;99.90;;;;;;5050663;28;20047;-72
2023/06/09 10:12:20;;;;;;;16.65;6.05;;;17.90;99.90;;;;;;5050878;28;20470;-72
2023/06/09 10:14:49;;;;;;;14.25;5.82;;;17.90;99.90;;;;;;5050684;28;20025;-73
2023/06/09 10:17:21;;;;;;;17.20;6.25;;;18.00;99.90;;;;;;5051056;28;20025;-73
2023/06/09 10:19:52;;;;;;;15.75;6.47;;;18.00;99.90;;;;;;5050323;28;20025;-73
2023/06/09 10:22:21;;;;;;;17.58;6.43;;;18.00;99.90;;;;;;5051755;28;20032;-72
2023/06/09 10:24:48;;;;;;;18.38;6.88;;;18.00;99.90;;;;;;5051190;28;20107;-73
2023/06/09 10:27:14;;;;;;;21.17;6.63;;;17.90;99.90;;;;;;5051070;28;20358;-73
2023/06/09 10:29:40;;;;;;;16.63;6.47;;;18.00;99.90;;;;;;5050239;28;20412;-74
2023/06/09 10:32:10;;;;;;;18.90;6.97;;;18.10;99.90;;;;;;5051305;28;20434;-72
2023/06/09 10:34:37;;;;;;;18.33;6.97;;;18.00;99.90;;;;;;5050867;28;20060;-73
2023/06/09 10:37:04;;;;;;;20.10;7.32;;;17.90;99.90;;;;;;5049788;28;20048;-72
2023/06/09 10:39:45;;;;;;;16.42;7.15;;;17.50;99.90;;;;;;5050149;28;20025;-75
2023/06/09 10:42:25;;;;;;;19.42;7.25;;;17.20;99.90;;;;;;5049949;28;20032;-73
2023/06/09 10:44:58;;;;;;;17.65;7.22;;;17.10;99.90;;;;;;5048916;28;20055;-73
2023/06/09 10:47:50;;;;;;;22.92;7.60;;;17.10;99.90;;;;;;5050032;28;20029;-72
2023/06/09 10:50:26;;;;;;;16.92;7.97;;;17.10;99.90;;;;;;5049661;28;20442;-71
2023/06/09 10:52:56;;;;;;;17.70;7.82;;;17.10;99.90;;;;;;5049193;28;20033;-72
2023/06/09 10:55:24;;;;;;;27.45;8.57;;;17.00;99.90;;;;;;5050402;28;20484;-72
2023/06/09 10:57:55;;;;;;;18.90;8.00;;;17.10;99.90;;;;;;5049603;28;20037;-72
2023/06/09 11:00:22;;;;;;;17.67;8.63;;;17.30;99.90;;;;;;5050090;28;20035;-71
2023/06/09 11:03:13;;;;;;;20.35;8.82;;;17.20;99.90;;;;;;5049631;28;20028;-72
2023/06/09 11:05:43;;;;;;;21.67;8.77;;;17.10;99.90;;;;;;5049984;28;20059;-74
2023/06/09 11:08:09;;;;;;;21.13;8.20;;;17.00;99.90;;;;;;5050170;28;20040;-72
2023/06/09 11:10:36;;;;;;;19.25;8.73;;;17.10;99.90;;;;;;5050113;28;20025;-72
2023/06/09 11:13:23;;;;;;;23.10;8.93;;;17.10;99.90;;;;;;5048171;28;20052;-72
2023/06/09 11:15:57;;;;;;;25.20;8.48;;;17.00;99.90;;;;;;5049476;28;20033;-72
2023/06/09 11:18:23;;;;;;;21.33;9.85;;;16.90;99.90;;;;;;5049660;28;20036;-73
2023/06/09 11:21:08;;;;;;;20.17;9.50;;;16.90;99.90;;;;;;5049665;28;20025;-72
2023/06/09 11:23:56;;;;;;;22.25;10.85;;;17.00;99.90;;;;;;5049596;28;20049;-72
2023/06/09 11:26:23;;;;;;;19.90;10.10;;;17.00;99.90;;;;;;5049329;28;20067;-72
2023/06/09 11:28:49;;;;;;;24.80;10.38;;;17.20;99.90;;;;;;5049438;28;20037;-72
2023/06/09 11:31:15;;;;;;;24.25;10.90;;;17.00;99.90;;;;;;5049926;28;20500;-71
2023/06/09 11:33:53;;;;;;;30.42;10.55;;;16.90;99.90;;;;;;5049359;28;20422;-74
2023/06/09 11:36:27;;;;;;;22.48;11.13;;;17.20;99.90;;;;;;5049947;28;20036;-71
2023/06/09 11:39:00;;;;;;;21.27;10.68;;;17.20;99.90;;;;;;5049171;28;20033;-72
2023/06/09 11:41:27;;;;;;;18.92;10.40;;;17.40;99.90;;;;;;5049964;28;20032;-72
2023/06/09 11:43:54;;;;;;;22.23;10.07;;;17.40;99.90;;;;;;5049120;28;20025;-72
2023/06/09 11:46:21;;;;;;;21.15;10.60;;;17.60;99.90;;;;;;5049898;28;20032;-71
2023/06/09 11:48:59;;;;;;;20.58;10.45;;;17.50;99.90;;;;;;5047839;28;20057;-72
2023/06/09 11:51:25;;;;;;;18.95;10.40;;;17.30;99.90;;;;;;5049881;28;20021;-70
2023/06/09 11:53:51;;;;;;;24.52;10.80;;;17.10;99.90;;;;;;5049339;28;20028;-72
2023/06/09 11:56:17;;;;;;;20.55;10.63;;;17.20;99.90;;;;;;5049668;28;20029;-71
2023/06/09 11:58:42;;;;;;;20.92;9.65;;;17.30;99.90;;;;;;5053319;28;20021;-74
2023/06/09 12:01:09;;;;;;;23.88;10.20;;;17.20;99.90;;;;;;5053146;28;20050;-71
2023/06/09 12:03:36;;;;;;;21.92;10.23;;;17.40;99.90;;;;;;5053636;28;20088;-72
2023/06/09 12:06:02;;;;;;;22.10;10.02;;;17.40;99.90;;;;;;5052489;28;20076;-71
2023/06/09 12:08:28;;;;;;;22.75;11.52;;;17.30;99.90;;;;;;5053283;28;20110;-72
2023/06/09 12:10:54;;;;;;;21.75;10.25;;;17.10;99.90;;;;;;5052643;28;20128;-71
2023/06/09 12:13:20;;;;;;;20.83;10.82;;;17.00;99.90;;;;;;5053432;28;20044;-71
2023/06/09 12:15:54;;;;;;;25.33;11.63;;;17.00;99.90;;;;;;5052607;28;20032;-73
2023/06/09 12:18:21;;;;;;;26.13;11.57;;;16.90;99.90;;;;;;5053354;28;20108;-71
2023/06/09 12:20:47;;;;;;;19.98;11.55;;;16.60;99.90;;;;;;5052900;28;20485;-72
2023/06/09 12:23:14;;;;;;;25.20;12.93;;;16.50;99.90;;;;;;5051660;28;20025;-71
2023/06/09 12:25:48;;;;;;;24.15;12.85;;;16.50;99.90;;;;;;5053127;28;20193;-71
2023/06/09 12:28:27;;;;;;;22.13;12.93;;;16.40;99.90;;;;;;5053353;28;20049;-71
2023/06/09 12:30:55;;;;;;;22.17;12.73;;;16.50;99.90;;;;;;5052764;28;20074;-72
2023/06/09 12:33:26;;;;;;;21.25;11.93;;;16.80;99.90;;;;;;5053318;28;20036;-71
2023/06/09 12:35:55;;;;;;;20.35;11.70;;;17.10;99.90;;;;;;5052520;28;20048;-72
2023/06/09 12:38:26;;;;;;;21.35;11.70;;;17.30;99.90;;;;;;5053159;28;20410;-71